Terminal Aerodrome Forecast
Issued by NWS

Home | Current Version | Previous Version | Text Only | Print | Product List | Glossary On
Versions: 1 2 3 4 5 6 7 8 9 10 11 12 13 14 15 16 17 18 19 20
000
FTUS43 KDDC 242334
TAFHYS
TAF
KHYS 242334Z 2500/2524 35021G28KT P6SM SKC
     FM250200 33008KT P6SM SCT250
     FM252000 22010G15KT P6SM SCT100=

USA.gov is the U.S. government's official web portal to all federal, state and local government web resources and services.